createdAt,value
2022-09-28T02:40:23.025Z,72.13
2022-09-28T04:21:32.734Z,67.64
2022-09-28T04:58:08.793Z,70.67
2022-09-28T05:21:57.837Z,71.17
2022-09-28T05:25:16.587Z,70.87
2022-09-28T05:28:24.085Z,71.14
2022-09-28T05:31:27.520Z,70.66
2022-09-28T05:34:32.531Z,70.58
2022-09-28T05:40:23.177Z,71.63
2022-09-28T05:47:43.741Z,72.16
2022-09-28T05:50:25.812Z,72.17
2022-09-28T05:53:24.148Z,72.38
2022-09-28T05:56:42.135Z,72.27
2022-09-28T06:23:14.748Z,70.91
2022-09-28T06:33:05.167Z,71.44
2022-09-28T06:35:37.443Z,70.70
2022-09-28T06:38:07.985Z,71.18
2022-09-28T06:40:39.522Z,70.18
2022-09-28T06:43:19.393Z,69.85
2022-09-28T06:46:06.878Z,70.37
2022-09-28T06:48:45.622Z,69.29
2022-09-28T06:51:22.444Z,68.83
2022-09-28T06:54:05.222Z,68.79
2022-09-28T07:35:03.627Z,66.23
2022-09-28T07:42:21.391Z,66.42
2022-09-28T07:45:50.871Z,66.05
2022-09-28T07:48:41.202Z,65.89
2022-09-28T07:51:26.206Z,65.61
2022-09-28T07:54:01.885Z,65.13
2022-09-28T07:56:35.997Z,65.86
2022-09-28T07:59:14.498Z,65.51
2022-09-28T08:02:15.951Z,65.78
2022-09-28T08:05:01.387Z,63.72
2022-09-28T08:11:59.846Z,62.96
2022-09-28T08:18:18.780Z,62.99
2022-09-28T08:22:02.348Z,61.92
2022-09-28T08:24:54.749Z,62.29
2022-09-28T08:27:28.110Z,63.39
2022-09-28T08:30:04.429Z,63.31
2022-09-28T08:32:36.124Z,63.30
2022-09-28T08:35:55.350Z,62.41
2022-09-28T08:39:03.092Z,62.45
2022-09-28T08:41:57.186Z,62.26
2022-09-28T08:48:20.918Z,62.31
2022-09-28T08:51:00.435Z,61.61
2022-09-28T08:53:38.639Z,60.72
2022-09-28T08:56:15.219Z,61.24
2022-09-28T08:58:51.831Z,57.91
2022-09-28T09:01:22.788Z,57.61
2022-09-28T09:03:56.033Z,57.89
2022-09-28T09:06:38.616Z,57.24
2022-09-28T09:09:30.440Z,58.13
2022-09-28T09:12:13.050Z,57.02
2022-09-28T09:15:09.394Z,57.54
2022-09-28T09:17:51.853Z,57.49
2022-09-28T09:23:36.958Z,56.00
2022-09-28T09:26:24.415Z,55.23
2022-09-28T09:29:17.085Z,53.82
2022-09-28T09:32:07.667Z,54.01
2022-09-28T09:35:09.582Z,55.21
2022-09-28T09:38:07.196Z,52.84
2022-09-28T09:40:54.128Z,53.45
2022-09-28T09:43:56.375Z,54.06
2022-09-28T09:46:38.446Z,53.11
2022-09-28T09:49:17.251Z,52.36
2022-09-28T09:51:54.142Z,52.55
2022-09-28T09:54:33.624Z,50.40
2022-09-28T09:57:08.547Z,51.50
2022-09-28T09:59:42.913Z,51.84
2022-09-28T10:02:24.357Z,52.62
2022-09-28T10:05:00.593Z,52.53
2022-09-28T10:07:43.224Z,52.21
2022-09-28T10:10:23.449Z,51.83
2022-09-28T10:12:54.401Z,52.84
2022-09-28T10:15:28.203Z,54.08
2022-09-28T10:18:03.298Z,53.96
2022-09-28T10:59:40.837Z,60.26
2022-09-28T13:17:53.737Z,64.63
2022-09-28T14:39:52.500Z,52.97
